sensor_id;sensor_type;location;lat;lon;timestamp;P1;durP1;ratioP1;P2;durP2;ratioP2
58089;SDS011;45149;50.976;6.120;2022-12-20T00:02:22;9.70;;;7.22;;
58089;SDS011;45149;50.976;6.120;2022-12-20T00:04:48;10.02;;;7.10;;
58089;SDS011;45149;50.976;6.120;2022-12-20T00:07:13;10.45;;;7.35;;
58089;SDS011;45149;50.976;6.120;2022-12-20T00:09:39;9.93;;;7.22;;
58089;SDS011;45149;50.976;6.120;2022-12-20T00:12:04;9.68;;;7.28;;
58089;SDS011;45149;50.976;6.120;2022-12-20T00:14:29;9.32;;;6.65;;
58089;SDS011;45149;50.976;6.120;2022-12-20T00:16:55;9.27;;;7.07;;
58089;SDS011;45149;50.976;6.120;2022-12-20T00:19:20;9.40;;;7.00;;
58089;SDS011;45149;50.976;6.120;2022-12-20T00:21:45;9.23;;;7.20;;
58089;SDS011;45149;50.976;6.120;2022-12-20T00:24:11;9.18;;;6.80;;
58089;SDS011;45149;50.976;6.120;2022-12-20T00:26:36;9.57;;;6.45;;
58089;SDS011;45149;50.976;6.120;2022-12-20T00:29:02;9.35;;;7.03;;
58089;SDS011;45149;50.976;6.120;2022-12-20T00:31:28;9.30;;;6.80;;
58089;SDS011;45149;50.976;6.120;2022-12-20T00:33:54;8.52;;;6.63;;
58089;SDS011;45149;50.976;6.120;2022-12-20T00:36:21;9.82;;;6.72;;
58089;SDS011;45149;50.976;6.120;2022-12-20T00:38:48;9.43;;;6.70;;
58089;SDS011;45149;50.976;6.120;2022-12-20T00:41:18;8.95;;;6.65;;
58089;SDS011;45149;50.976;6.120;2022-12-20T00:43:45;9.07;;;6.47;;
58089;SDS011;45149;50.976;6.120;2022-12-20T00:46:12;9.02;;;6.50;;
58089;SDS011;45149;50.976;6.120;2022-12-20T00:48:38;8.40;;;6.43;;
58089;SDS011;45149;50.976;6.120;2022-12-20T00:51:06;8.68;;;6.40;;
58089;SDS011;45149;50.976;6.120;2022-12-20T00:56:01;8.40;;;6.40;;
58089;SDS011;45149;50.976;6.120;2022-12-20T00:58:28;8.60;;;6.28;;
58089;SDS011;45149;50.976;6.120;2022-12-20T01:00:53;8.82;;;6.55;;
58089;SDS011;45149;50.976;6.120;2022-12-20T01:03:19;8.45;;;6.57;;
58089;SDS011;45149;50.976;6.120;2022-12-20T01:05:58;8.07;;;6.00;;
58089;SDS011;45149;50.976;6.120;2022-12-20T01:08:25;8.98;;;5.97;;
58089;SDS011;45149;50.976;6.120;2022-12-20T01:10:58;9.18;;;6.00;;
58089;SDS011;45149;50.976;6.120;2022-12-20T01:13:28;8.40;;;6.32;;
58089;SDS011;45149;50.976;6.120;2022-12-20T01:15:55;7.72;;;5.75;;
58089;SDS011;45149;50.976;6.120;2022-12-20T01:18:20;8.40;;;5.90;;
58089;SDS011;45149;50.976;6.120;2022-12-20T01:20:46;8.05;;;6.15;;
58089;SDS011;45149;50.976;6.120;2022-12-20T01:23:11;7.63;;;5.57;;
58089;SDS011;45149;50.976;6.120;2022-12-20T01:25:37;8.57;;;6.13;;
58089;SDS011;45149;50.976;6.120;2022-12-20T01:28:02;7.82;;;6.10;;
58089;SDS011;45149;50.976;6.120;2022-12-20T01:30:28;8.25;;;5.75;;
58089;SDS011;45149;50.976;6.120;2022-12-20T01:32:54;7.30;;;5.63;;
58089;SDS011;45149;50.976;6.120;2022-12-20T01:35:19;7.93;;;5.75;;
58089;SDS011;45149;50.976;6.120;2022-12-20T01:37:44;7.97;;;5.15;;
58089;SDS011;45149;50.976;6.120;2022-12-20T01:40:10;7.53;;;5.47;;
58089;SDS011;45149;50.976;6.120;2022-12-20T01:42:36;7.45;;;5.88;;
58089;SDS011;45149;50.976;6.120;2022-12-20T01:45:01;7.38;;;5.18;;
58089;SDS011;45149;50.976;6.120;2022-12-20T01:47:29;7.18;;;5.07;;
58089;SDS011;45149;50.976;6.120;2022-12-20T01:49:58;6.85;;;5.13;;
58089;SDS011;45149;50.976;6.120;2022-12-20T01:52:26;7.47;;;5.75;;
58089;SDS011;45149;50.976;6.120;2022-12-20T01:55:09;7.47;;;5.60;;
58089;SDS011;45149;50.976;6.120;2022-12-20T01:58:15;7.50;;;5.20;;
58089;SDS011;45149;50.976;6.120;2022-12-20T02:00:36;7.28;;;5.00;;
58089;SDS011;45149;50.976;6.120;2022-12-20T02:03:06;7.07;;;5.30;;
58089;SDS011;45149;50.976;6.120;2022-12-20T02:05:37;7.05;;;5.07;;
58089;SDS011;45149;50.976;6.120;2022-12-20T02:08:04;7.15;;;5.28;;
58089;SDS011;45149;50.976;6.120;2022-12-20T02:13:23;7.45;;;5.30;;
58089;SDS011;45149;50.976;6.120;2022-12-20T02:15:55;6.70;;;4.97;;
58089;SDS011;45149;50.976;6.120;2022-12-20T02:18:57;8.65;;;5.32;;
58089;SDS011;45149;50.976;6.120;2022-12-20T02:29:39;6.43;;;4.53;;
58089;SDS011;45149;50.976;6.120;2022-12-20T02:32:27;6.97;;;5.18;;
58089;SDS011;45149;50.976;6.120;2022-12-20T02:34:58;6.72;;;4.90;;
58089;SDS011;45149;50.976;6.120;2022-12-20T02:37:23;6.43;;;4.95;;
58089;SDS011;45149;50.976;6.120;2022-12-20T02:39:49;6.15;;;4.47;;
58089;SDS011;45149;50.976;6.120;2022-12-20T02:42:15;6.07;;;4.78;;
58089;SDS011;45149;50.976;6.120;2022-12-20T02:44:48;6.70;;;4.80;;
58089;SDS011;45149;50.976;6.120;2022-12-20T02:47:39;6.10;;;4.60;;
58089;SDS011;45149;50.976;6.120;2022-12-20T02:50:11;6.45;;;4.80;;
58089;SDS011;45149;50.976;6.120;2022-12-20T02:52:38;5.88;;;4.35;;
58089;SDS011;45149;50.976;6.120;2022-12-20T02:55:04;5.95;;;4.43;;
58089;SDS011;45149;50.976;6.120;2022-12-20T02:57:44;6.13;;;4.32;;
58089;SDS011;45149;50.976;6.120;2022-12-20T03:00:23;6.18;;;4.72;;
58089;SDS011;45149;50.976;6.120;2022-12-20T03:02:49;5.78;;;4.38;;
58089;SDS011;45149;50.976;6.120;2022-12-20T03:05:36;6.25;;;4.55;;
58089;SDS011;45149;50.976;6.120;2022-12-20T03:08:08;6.22;;;4.63;;
58089;SDS011;45149;50.976;6.120;2022-12-20T03:10:34;6.25;;;4.85;;
58089;SDS011;45149;50.976;6.120;2022-12-20T03:12:59;6.07;;;4.70;;
58089;SDS011;45149;50.976;6.120;2022-12-20T03:15:24;6.10;;;4.50;;
58089;SDS011;45149;50.976;6.120;2022-12-20T03:17:50;6.22;;;4.57;;
58089;SDS011;45149;50.976;6.120;2022-12-20T03:20:15;6.18;;;4.57;;
58089;SDS011;45149;50.976;6.120;2022-12-20T03:22:40;6.07;;;4.72;;
58089;SDS011;45149;50.976;6.120;2022-12-20T03:25:06;5.97;;;4.53;;
58089;SDS011;45149;50.976;6.120;2022-12-20T03:27:31;6.53;;;4.60;;
58089;SDS011;45149;50.976;6.120;2022-12-20T03:29:57;5.95;;;4.53;;
58089;SDS011;45149;50.976;6.120;2022-12-20T03:32:22;6.22;;;4.82;;
58089;SDS011;45149;50.976;6.120;2022-12-20T03:34:47;6.18;;;4.38;;
58089;SDS011;45149;50.976;6.120;2022-12-20T03:37:13;6.10;;;4.47;;
58089;SDS011;45149;50.976;6.120;2022-12-20T03:39:39;5.82;;;4.78;;
58089;SDS011;45149;50.976;6.120;2022-12-20T03:42:04;5.55;;;4.20;;
58089;SDS011;45149;50.976;6.120;2022-12-20T03:44:29;5.90;;;4.22;;
58089;SDS011;45149;50.976;6.120;2022-12-20T03:46:55;5.85;;;4.60;;
58089;SDS011;45149;50.976;6.120;2022-12-20T03:49:20;6.82;;;4.20;;
58089;SDS011;45149;50.976;6.120;2022-12-20T03:51:45;6.00;;;4.22;;
58089;SDS011;45149;50.976;6.120;2022-12-20T03:54:11;6.07;;;4.45;;
58089;SDS011;45149;50.976;6.120;2022-12-20T03:56:36;5.45;;;4.00;;
58089;SDS011;45149;50.976;6.120;2022-12-20T03:59:02;5.18;;;4.07;;
58089;SDS011;45149;50.976;6.120;2022-12-20T04:01:27;5.60;;;4.10;;
58089;SDS011;45149;50.976;6.120;2022-12-20T04:03:53;5.25;;;4.00;;
58089;SDS011;45149;50.976;6.120;2022-12-20T04:06:19;5.68;;;4.25;;
58089;SDS011;45149;50.976;6.120;2022-12-20T04:08:45;5.75;;;4.28;;
58089;SDS011;45149;50.976;6.120;2022-12-20T04:11:11;5.28;;;3.90;;
58089;SDS011;45149;50.976;6.120;2022-12-20T04:16:13;5.78;;;4.20;;
58089;SDS011;45149;50.976;6.120;2022-12-20T04:18:39;5.32;;;4.25;;
58089;SDS011;45149;50.976;6.120;2022-12-20T04:21:05;5.70;;;4.05;;
58089;SDS011;45149;50.976;6.120;2022-12-20T04:23:34;5.65;;;4.10;;
58089;SDS011;45149;50.976;6.120;2022-12-20T04:26:01;5.93;;;4.28;;
58089;SDS011;45149;50.976;6.120;2022-12-20T04:28:27;4.97;;;3.92;;
58089;SDS011;45149;50.976;6.120;2022-12-20T04:30:53;6.05;;;4.18;;
58089;SDS011;45149;50.976;6.120;2022-12-20T04:33:18;6.25;;;4.18;;
58089;SDS011;45149;50.976;6.120;2022-12-20T04:35:44;7.13;;;4.30;;
58089;SDS011;45149;50.976;6.120;2022-12-20T04:38:09;6.13;;;4.25;;
58089;SDS011;45149;50.976;6.120;2022-12-20T04:40:34;5.57;;;4.05;;
58089;SDS011;45149;50.976;6.120;2022-12-20T04:43:00;5.00;;;3.55;;
58089;SDS011;45149;50.976;6.120;2022-12-20T04:45:25;5.68;;;3.70;;
58089;SDS011;45149;50.976;6.120;2022-12-20T04:47:50;4.50;;;3.65;;
58089;SDS011;45149;50.976;6.120;2022-12-20T04:50:16;5.53;;;3.95;;
58089;SDS011;45149;50.976;6.120;2022-12-20T04:52:43;4.97;;;3.67;;
58089;SDS011;45149;50.976;6.120;2022-12-20T04:55:27;5.20;;;4.05;;
58089;SDS011;45149;50.976;6.120;2022-12-20T04:57:52;4.53;;;3.65;;
58089;SDS011;45149;50.976;6.120;2022-12-20T05:00:17;4.50;;;3.40;;
58089;SDS011;45149;50.976;6.120;2022-12-20T05:02:43;4.88;;;3.70;;
58089;SDS011;45149;50.976;6.120;2022-12-20T05:05:08;4.97;;;3.70;;
58089;SDS011;45149;50.976;6.120;2022-12-20T05:07:34;5.50;;;3.80;;
58089;SDS011;45149;50.976;6.120;2022-12-20T05:09:59;4.55;;;3.55;;
58089;SDS011;45149;50.976;6.120;2022-12-20T05:12:25;5.53;;;3.97;;
58089;SDS011;45149;50.976;6.120;2022-12-20T05:14:50;5.55;;;4.07;;
58089;SDS011;45149;50.976;6.120;2022-12-20T05:17:15;4.95;;;3.80;;
58089;SDS011;45149;50.976;6.120;2022-12-20T05:19:41;4.50;;;3.30;;
58089;SDS011;45149;50.976;6.120;2022-12-20T05:22:06;5.47;;;3.95;;
58089;SDS011;45149;50.976;6.120;2022-12-20T05:24:50;5.35;;;3.92;;
58089;SDS011;45149;50.976;6.120;2022-12-20T05:27:34;4.60;;;3.78;;
58089;SDS011;45149;50.976;6.120;2022-12-20T05:29:59;5.20;;;3.70;;
58089;SDS011;45149;50.976;6.120;2022-12-20T05:32:25;4.95;;;3.67;;
58089;SDS011;45149;50.976;6.120;2022-12-20T05:34:50;4.88;;;3.92;;
58089;SDS011;45149;50.976;6.120;2022-12-20T05:37:15;4.88;;;3.80;;
58089;SDS011;45149;50.976;6.120;2022-12-20T05:39:41;4.70;;;3.28;;
58089;SDS011;45149;50.976;6.120;2022-12-20T05:42:06;5.00;;;3.60;;
58089;SDS011;45149;50.976;6.120;2022-12-20T05:44:31;4.93;;;3.65;;
58089;SDS011;45149;50.976;6.120;2022-12-20T05:46:57;4.75;;;3.50;;
58089;SDS011;45149;50.976;6.120;2022-12-20T05:49:22;4.90;;;3.30;;
58089;SDS011;45149;50.976;6.120;2022-12-20T05:51:47;4.28;;;3.38;;
58089;SDS011;45149;50.976;6.120;2022-12-20T05:54:13;4.75;;;3.60;;
58089;SDS011;45149;50.976;6.120;2022-12-20T05:56:38;4.45;;;3.40;;
58089;SDS011;45149;50.976;6.120;2022-12-20T05:59:03;5.45;;;3.45;;
58089;SDS011;45149;50.976;6.120;2022-12-20T06:01:29;4.00;;;2.88;;
58089;SDS011;45149;50.976;6.120;2022-12-20T06:03:54;4.75;;;3.40;;
58089;SDS011;45149;50.976;6.120;2022-12-20T06:06:20;4.70;;;3.28;;
58089;SDS011;45149;50.976;6.120;2022-12-20T06:08:46;5.25;;;3.58;;
58089;SDS011;45149;50.976;6.120;2022-12-20T06:11:12;4.05;;;2.95;;
58089;SDS011;45149;50.976;6.120;2022-12-20T06:13:37;4.28;;;3.25;;
58089;SDS011;45149;50.976;6.120;2022-12-20T06:16:02;4.00;;;2.95;;
58089;SDS011;45149;50.976;6.120;2022-12-20T06:18:28;4.13;;;3.33;;
58089;SDS011;45149;50.976;6.120;2022-12-20T06:20:53;36.75;;;28.17;;
58089;SDS011;45149;50.976;6.120;2022-12-20T06:23:19;30.35;;;26.13;;
58089;SDS011;45149;50.976;6.120;2022-12-20T06:25:45;30.80;;;25.92;;
58089;SDS011;45149;50.976;6.120;2022-12-20T06:28:10;30.92;;;25.25;;
58089;SDS011;45149;50.976;6.120;2022-12-20T06:30:36;33.58;;;28.08;;
58089;SDS011;45149;50.976;6.120;2022-12-20T06:33:01;32.20;;;27.48;;
58089;SDS011;45149;50.976;6.120;2022-12-20T06:35:28;30.13;;;26.17;;
58089;SDS011;45149;50.976;6.120;2022-12-20T06:37:54;30.27;;;26.05;;
58089;SDS011;45149;50.976;6.120;2022-12-20T06:40:19;30.35;;;25.58;;
58089;SDS011;45149;50.976;6.120;2022-12-20T06:42:45;30.92;;;25.92;;
58089;SDS011;45149;50.976;6.120;2022-12-20T06:45:10;28.85;;;25.75;;
58089;SDS011;45149;50.976;6.120;2022-12-20T06:47:36;30.77;;;24.83;;
58089;SDS011;45149;50.976;6.120;2022-12-20T06:50:01;29.23;;;24.50;;
58089;SDS011;45149;50.976;6.120;2022-12-20T06:52:28;28.30;;;24.13;;
58089;SDS011;45149;50.976;6.120;2022-12-20T06:54:53;28.50;;;24.63;;
58089;SDS011;45149;50.976;6.120;2022-12-20T06:57:19;28.77;;;24.17;;
58089;SDS011;45149;50.976;6.120;2022-12-20T06:59:44;28.17;;;23.83;;
58089;SDS011;45149;50.976;6.120;2022-12-20T07:02:10;28.13;;;23.23;;
58089;SDS011;45149;50.976;6.120;2022-12-20T07:04:36;26.75;;;23.15;;
58089;SDS011;45149;50.976;6.120;2022-12-20T07:07:02;26.73;;;23.13;;
58089;SDS011;45149;50.976;6.120;2022-12-20T07:09:28;25.30;;;22.58;;
58089;SDS011;45149;50.976;6.120;2022-12-20T07:11:53;26.45;;;21.55;;
58089;SDS011;45149;50.976;6.120;2022-12-20T07:14:19;25.55;;;21.77;;
58089;SDS011;45149;50.976;6.120;2022-12-20T07:16:44;25.48;;;21.55;;
58089;SDS011;45149;50.976;6.120;2022-12-20T07:19:10;24.90;;;21.45;;
58089;SDS011;45149;50.976;6.120;2022-12-20T07:21:36;23.25;;;20.75;;
58089;SDS011;45149;50.976;6.120;2022-12-20T07:24:02;23.25;;;20.48;;
58089;SDS011;45149;50.976;6.120;2022-12-20T07:26:27;23.52;;;20.00;;
58089;SDS011;45149;50.976;6.120;2022-12-20T07:28:52;23.33;;;20.73;;
58089;SDS011;45149;50.976;6.120;2022-12-20T07:31:18;24.00;;;21.17;;
58089;SDS011;45149;50.976;6.120;2022-12-20T07:33:43;22.35;;;19.48;;
58089;SDS011;45149;50.976;6.120;2022-12-20T07:36:09;23.00;;;20.50;;
58089;SDS011;45149;50.976;6.120;2022-12-20T07:38:36;23.75;;;20.15;;
58089;SDS011;45149;50.976;6.120;2022-12-20T07:41:05;22.92;;;19.35;;
58089;SDS011;45149;50.976;6.120;2022-12-20T07:43:35;23.42;;;19.33;;
58089;SDS011;45149;50.976;6.120;2022-12-20T07:46:00;22.33;;;19.20;;
58089;SDS011;45149;50.976;6.120;2022-12-20T07:48:26;21.90;;;18.85;;
58089;SDS011;45149;50.976;6.120;2022-12-20T07:50:52;20.85;;;17.77;;
58089;SDS011;45149;50.976;6.120;2022-12-20T07:53:23;22.35;;;18.55;;
58089;SDS011;45149;50.976;6.120;2022-12-20T07:55:51;21.27;;;18.42;;
58089;SDS011;45149;50.976;6.120;2022-12-20T07:58:18;21.23;;;17.80;;
58089;SDS011;45149;50.976;6.120;2022-12-20T08:00:44;19.27;;;16.85;;
58089;SDS011;45149;50.976;6.120;2022-12-20T08:05:41;19.67;;;17.58;;
58089;SDS011;45149;50.976;6.120;2022-12-20T08:08:11;19.77;;;17.50;;
58089;SDS011;45149;50.976;6.120;2022-12-20T08:10:37;18.38;;;16.35;;
58089;SDS011;45149;50.976;6.120;2022-12-20T08:13:03;19.35;;;16.45;;
58089;SDS011;45149;50.976;6.120;2022-12-20T08:15:30;20.23;;;17.05;;
58089;SDS011;45149;50.976;6.120;2022-12-20T08:17:57;19.75;;;16.90;;
58089;SDS011;45149;50.976;6.120;2022-12-20T08:20:22;18.35;;;15.43;;
58089;SDS011;45149;50.976;6.120;2022-12-20T08:22:47;18.52;;;16.45;;
58089;SDS011;45149;50.976;6.120;2022-12-20T08:25:13;19.02;;;16.50;;
58089;SDS011;45149;50.976;6.120;2022-12-20T08:27:38;17.60;;;15.70;;
58089;SDS011;45149;50.976;6.120;2022-12-20T08:30:04;17.98;;;15.57;;
58089;SDS011;45149;50.976;6.120;2022-12-20T08:32:31;17.98;;;15.00;;
58089;SDS011;45149;50.976;6.120;2022-12-20T08:34:56;18.23;;;16.13;;
58089;SDS011;45149;50.976;6.120;2022-12-20T08:37:22;18.45;;;15.38;;
58089;SDS011;45149;50.976;6.120;2022-12-20T08:39:47;17.25;;;15.30;;
58089;SDS011;45149;50.976;6.120;2022-12-20T08:42:12;18.50;;;15.80;;
58089;SDS011;45149;50.976;6.120;2022-12-20T08:44:38;16.48;;;14.45;;
58089;SDS011;45149;50.976;6.120;2022-12-20T08:47:03;16.30;;;14.60;;
58089;SDS011;45149;50.976;6.120;2022-12-20T08:49:29;16.85;;;15.05;;
58089;SDS011;45149;50.976;6.120;2022-12-20T08:51:54;16.77;;;14.98;;
58089;SDS011;45149;50.976;6.120;2022-12-20T08:54:20;16.27;;;14.35;;
58089;SDS011;45149;50.976;6.120;2022-12-20T08:56:45;15.75;;;14.07;;
58089;SDS011;45149;50.976;6.120;2022-12-20T08:59:10;16.05;;;14.18;;
58089;SDS011;45149;50.976;6.120;2022-12-20T09:01:36;15.45;;;13.65;;
58089;SDS011;45149;50.976;6.120;2022-12-20T09:04:01;16.52;;;13.93;;
58089;SDS011;45149;50.976;6.120;2022-12-20T09:06:28;14.88;;;13.27;;
58089;SDS011;45149;50.976;6.120;2022-12-20T09:08:53;14.85;;;13.02;;
58089;SDS011;45149;50.976;6.120;2022-12-20T09:11:23;15.88;;;13.10;;
58089;SDS011;45149;50.976;6.120;2022-12-20T09:13:50;16.38;;;13.95;;
58089;SDS011;45149;50.976;6.120;2022-12-20T09:16:18;15.00;;;12.77;;
58089;SDS011;45149;50.976;6.120;2022-12-20T09:18:49;15.40;;;12.93;;
58089;SDS011;45149;50.976;6.120;2022-12-20T09:21:18;15.38;;;13.63;;
58089;SDS011;45149;50.976;6.120;2022-12-20T09:23:44;16.48;;;13.73;;
58089;SDS011;45149;50.976;6.120;2022-12-20T09:26:10;14.00;;;12.43;;
58089;SDS011;45149;50.976;6.120;2022-12-20T09:28:37;14.48;;;12.98;;
58089;SDS011;45149;50.976;6.120;2022-12-20T09:31:04;14.95;;;12.32;;
58089;SDS011;45149;50.976;6.120;2022-12-20T09:33:31;15.30;;;12.70;;
58089;SDS011;45149;50.976;6.120;2022-12-20T09:35:58;14.80;;;12.98;;
58089;SDS011;45149;50.976;6.120;2022-12-20T09:38:24;14.85;;;12.23;;
58089;SDS011;45149;50.976;6.120;2022-12-20T09:40:51;13.73;;;12.13;;
58089;SDS011;45149;50.976;6.120;2022-12-20T09:43:18;14.52;;;12.10;;
58089;SDS011;45149;50.976;6.120;2022-12-20T09:45:46;13.15;;;11.43;;
58089;SDS011;45149;50.976;6.120;2022-12-20T09:48:19;13.50;;;11.50;;
58089;SDS011;45149;50.976;6.120;2022-12-20T09:56:29;12.98;;;11.32;;
58089;SDS011;45149;50.976;6.120;2022-12-20T10:01:30;12.85;;;10.98;;
58089;SDS011;45149;50.976;6.120;2022-12-20T10:03:57;13.23;;;11.20;;
58089;SDS011;45149;50.976;6.120;2022-12-20T10:08:56;14.68;;;11.90;;
58089;SDS011;45149;50.976;6.120;2022-12-20T10:16:45;11.98;;;10.50;;
58089;SDS011;45149;50.976;6.120;2022-12-20T10:19:25;11.95;;;10.52;;
58089;SDS011;45149;50.976;6.120;2022-12-20T10:21:55;12.98;;;10.57;;
58089;SDS011;45149;50.976;6.120;2022-12-20T10:24:58;11.43;;;10.23;;
58089;SDS011;45149;50.976;6.120;2022-12-20T10:27:26;12.30;;;10.75;;
58089;SDS011;45149;50.976;6.120;2022-12-20T10:29:52;12.43;;;10.40;;
58089;SDS011;45149;50.976;6.120;2022-12-20T10:32:19;13.20;;;10.70;;
58089;SDS011;45149;50.976;6.120;2022-12-20T10:34:56;11.02;;;9.82;;
58089;SDS011;45149;50.976;6.120;2022-12-20T10:40:42;10.82;;;9.68;;
58089;SDS011;45149;50.976;6.120;2022-12-20T10:43:13;11.02;;;9.77;;
58089;SDS011;45149;50.976;6.120;2022-12-20T10:45:44;11.55;;;9.88;;
58089;SDS011;45149;50.976;6.120;2022-12-20T10:48:24;11.43;;;9.48;;
58089;SDS011;45149;50.976;6.120;2022-12-20T10:50:59;10.98;;;9.30;;
58089;SDS011;45149;50.976;6.120;2022-12-20T10:53:26;10.95;;;9.60;;
58089;SDS011;45149;50.976;6.120;2022-12-20T10:55:53;11.82;;;10.02;;
58089;SDS011;45149;50.976;6.120;2022-12-20T11:01:17;10.57;;;9.13;;
58089;SDS011;45149;50.976;6.120;2022-12-20T11:03:57;11.40;;;9.73;;
58089;SDS011;45149;50.976;6.120;2022-12-20T11:06:46;10.57;;;9.13;;
58089;SDS011;45149;50.976;6.120;2022-12-20T11:09:13;11.40;;;9.43;;
58089;SDS011;45149;50.976;6.120;2022-12-20T11:12:06;10.15;;;9.00;;
58089;SDS011;45149;50.976;6.120;2022-12-20T11:14:39;11.35;;;9.52;;
58089;SDS011;45149;50.976;6.120;2022-12-20T11:25:56;100.07;;;70.57;;
58089;SDS011;45149;50.976;6.120;2022-12-20T11:39:52;10.18;;;7.97;;
58089;SDS011;45149;50.976;6.120;2022-12-20T11:48:44;9.95;;;7.82;;
58089;SDS011;45149;50.976;6.120;2022-12-20T11:53:53;11.52;;;7.80;;
58089;SDS011;45149;50.976;6.120;2022-12-20T11:56:39;9.82;;;7.22;;
58089;SDS011;45149;50.976;6.120;2022-12-20T11:59:21;8.75;;;7.20;;
58089;SDS011;45149;50.976;6.120;2022-12-20T12:02:07;8.48;;;7.03;;
58089;SDS011;45149;50.976;6.120;2022-12-20T12:04:58;9.45;;;7.45;;
58089;SDS011;45149;50.976;6.120;2022-12-20T12:07:39;8.88;;;6.82;;
58089;SDS011;45149;50.976;6.120;2022-12-20T12:10:13;9.40;;;6.80;;
58089;SDS011;45149;50.976;6.120;2022-12-20T12:12:42;9.70;;;6.72;;
58089;SDS011;45149;50.976;6.120;2022-12-20T12:18:00;9.25;;;7.00;;
58089;SDS011;45149;50.976;6.120;2022-12-20T12:20:34;8.35;;;6.85;;
58089;SDS011;45149;50.976;6.120;2022-12-20T12:25:48;8.88;;;6.60;;
58089;SDS011;45149;50.976;6.120;2022-12-20T12:28:14;9.07;;;6.60;;
58089;SDS011;45149;50.976;6.120;2022-12-20T12:30:45;7.50;;;5.93;;
58089;SDS011;45149;50.976;6.120;2022-12-20T12:33:41;7.93;;;6.15;;
58089;SDS011;45149;50.976;6.120;2022-12-20T12:41:41;7.90;;;6.50;;
58089;SDS011;45149;50.976;6.120;2022-12-20T12:46:43;7.18;;;5.90;;
58089;SDS011;45149;50.976;6.120;2022-12-20T12:49:14;7.68;;;5.93;;
58089;SDS011;45149;50.976;6.120;2022-12-20T12:51:43;7.85;;;6.43;;
58089;SDS011;45149;50.976;6.120;2022-12-20T12:54:26;7.20;;;5.90;;
58089;SDS011;45149;50.976;6.120;2022-12-20T12:57:01;7.68;;;5.85;;
58089;SDS011;45149;50.976;6.120;2022-12-20T13:04:28;7.07;;;5.60;;
58089;SDS011;45149;50.976;6.120;2022-12-20T13:06:57;7.20;;;6.07;;
58089;SDS011;45149;50.976;6.120;2022-12-20T13:11:50;7.38;;;5.85;;
58089;SDS011;45149;50.976;6.120;2022-12-20T13:16:43;7.03;;;5.72;;
58089;SDS011;45149;50.976;6.120;2022-12-20T13:21:39;6.78;;;5.32;;
58089;SDS011;45149;50.976;6.120;2022-12-20T13:27:22;6.45;;;5.22;;
58089;SDS011;45149;50.976;6.120;2022-12-20T13:38:02;6.40;;;5.18;;
58089;SDS011;45149;50.976;6.120;2022-12-20T13:43:11;5.55;;;4.78;;
58089;SDS011;45149;50.976;6.120;2022-12-20T13:45:44;7.82;;;5.78;;
58089;SDS011;45149;50.976;6.120;2022-12-20T13:48:14;6.45;;;5.35;;
58089;SDS011;45149;50.976;6.120;2022-12-20T13:50:49;6.03;;;4.90;;
58089;SDS011;45149;50.976;6.120;2022-12-20T13:53:17;6.22;;;4.93;;
58089;SDS011;45149;50.976;6.120;2022-12-20T13:55:44;6.55;;;5.50;;
58089;SDS011;45149;50.976;6.120;2022-12-20T13:58:30;6.32;;;5.15;;
58089;SDS011;45149;50.976;6.120;2022-12-20T14:01:04;6.10;;;4.70;;
58089;SDS011;45149;50.976;6.120;2022-12-20T14:03:34;5.95;;;5.07;;
58089;SDS011;45149;50.976;6.120;2022-12-20T14:06:08;5.63;;;4.90;;
58089;SDS011;45149;50.976;6.120;2022-12-20T14:08:35;6.38;;;4.63;;
58089;SDS011;45149;50.976;6.120;2022-12-20T14:11:15;6.38;;;4.68;;
58089;SDS011;45149;50.976;6.120;2022-12-20T14:13:49;5.18;;;4.30;;
58089;SDS011;45149;50.976;6.120;2022-12-20T14:16:26;5.82;;;4.65;;
58089;SDS011;45149;50.976;6.120;2022-12-20T14:21:21;6.32;;;5.07;;
58089;SDS011;45149;50.976;6.120;2022-12-20T14:23:48;6.25;;;4.93;;
58089;SDS011;45149;50.976;6.120;2022-12-20T14:28:49;5.90;;;4.68;;
58089;SDS011;45149;50.976;6.120;2022-12-20T14:36:34;5.88;;;4.47;;
58089;SDS011;45149;50.976;6.120;2022-12-20T14:39:09;5.70;;;4.50;;
58089;SDS011;45149;50.976;6.120;2022-12-20T14:41:54;6.63;;;4.78;;
58089;SDS011;45149;50.976;6.120;2022-12-20T14:44:22;6.15;;;4.70;;
58089;SDS011;45149;50.976;6.120;2022-12-20T14:46:48;5.78;;;4.50;;
58089;SDS011;45149;50.976;6.120;2022-12-20T14:49:29;5.15;;;4.10;;
58089;SDS011;45149;50.976;6.120;2022-12-20T14:54:44;5.33;;;4.13;;
58089;SDS011;45149;50.976;6.120;2022-12-20T14:57:10;5.00;;;4.15;;
58089;SDS011;45149;50.976;6.120;2022-12-20T14:59:58;6.32;;;4.10;;
58089;SDS011;45149;50.976;6.120;2022-12-20T15:02:39;5.32;;;4.13;;
58089;SDS011;45149;50.976;6.120;2022-12-20T15:05:08;5.47;;;3.90;;
58089;SDS011;45149;50.976;6.120;2022-12-20T15:13:41;6.03;;;4.35;;
58089;SDS011;45149;50.976;6.120;2022-12-20T15:16:14;5.75;;;3.97;;
58089;SDS011;45149;50.976;6.120;2022-12-20T15:18:42;5.13;;;3.88;;
58089;SDS011;45149;50.976;6.120;2022-12-20T15:21:14;5.70;;;4.13;;
58089;SDS011;45149;50.976;6.120;2022-12-20T15:23:47;5.55;;;4.00;;
58089;SDS011;45149;50.976;6.120;2022-12-20T15:28:41;5.82;;;4.30;;
58089;SDS011;45149;50.976;6.120;2022-12-20T15:31:08;4.72;;;3.80;;
58089;SDS011;45149;50.976;6.120;2022-12-20T15:33:36;6.00;;;4.15;;
58089;SDS011;45149;50.976;6.120;2022-12-20T15:36:03;4.50;;;3.63;;
58089;SDS011;45149;50.976;6.120;2022-12-20T15:38:29;5.53;;;3.78;;
58089;SDS011;45149;50.976;6.120;2022-12-20T15:41:04;4.60;;;3.60;;
58089;SDS011;45149;50.976;6.120;2022-12-20T15:43:33;4.35;;;3.72;;
58089;SDS011;45149;50.976;6.120;2022-12-20T15:46:02;5.13;;;3.97;;
58089;SDS011;45149;50.976;6.120;2022-12-20T15:48:28;4.55;;;3.42;;
58089;SDS011;45149;50.976;6.120;2022-12-20T15:50:54;5.25;;;3.65;;
58089;SDS011;45149;50.976;6.120;2022-12-20T15:53:26;5.40;;;3.78;;
58089;SDS011;45149;50.976;6.120;2022-12-20T15:55:55;5.28;;;3.90;;
58089;SDS011;45149;50.976;6.120;2022-12-20T15:58:21;4.85;;;3.67;;
58089;SDS011;45149;50.976;6.120;2022-12-20T16:00:47;5.07;;;3.75;;
58089;SDS011;45149;50.976;6.120;2022-12-20T16:03:14;4.40;;;3.42;;
58089;SDS011;45149;50.976;6.120;2022-12-20T16:05:49;5.53;;;4.30;;
58089;SDS011;45149;50.976;6.120;2022-12-20T16:08:15;4.15;;;3.47;;
58089;SDS011;45149;50.976;6.120;2022-12-20T16:10:42;38.60;;;8.55;;
58089;SDS011;45149;50.976;6.120;2022-12-20T16:13:12;611.08;;;420.55;;
58089;SDS011;45149;50.976;6.120;2022-12-20T16:15:39;111.15;;;53.63;;
58089;SDS011;45149;50.976;6.120;2022-12-20T16:18:04;27.92;;;21.23;;
58089;SDS011;45149;50.976;6.120;2022-12-20T16:20:29;236.82;;;181.60;;
58089;SDS011;45149;50.976;6.120;2022-12-20T16:22:55;193.25;;;145.95;;
58089;SDS011;45149;50.976;6.120;2022-12-20T16:25:23;516.08;;;398.45;;
58089;SDS011;45149;50.976;6.120;2022-12-20T16:27:51;369.58;;;288.40;;
58089;SDS011;45149;50.976;6.120;2022-12-20T16:30:16;388.92;;;299.27;;
58089;SDS011;45149;50.976;6.120;2022-12-20T16:32:42;464.77;;;359.27;;
58089;SDS011;45149;50.976;6.120;2022-12-20T16:35:13;588.67;;;466.17;;
58089;SDS011;45149;50.976;6.120;2022-12-20T16:37:46;652.80;;;503.10;;
58089;SDS011;45149;50.976;6.120;2022-12-20T16:40:12;642.45;;;501.92;;
58089;SDS011;45149;50.976;6.120;2022-12-20T16:42:39;625.95;;;486.90;;
58089;SDS011;45149;50.976;6.120;2022-12-20T16:45:05;602.45;;;471.02;;
58089;SDS011;45149;50.976;6.120;2022-12-20T16:47:30;589.28;;;451.85;;
58089;SDS011;45149;50.976;6.120;2022-12-20T16:49:56;578.25;;;438.48;;
58089;SDS011;45149;50.976;6.120;2022-12-20T16:52:21;561.42;;;423.75;;
58089;SDS011;45149;50.976;6.120;2022-12-20T16:54:47;544.85;;;415.20;;
58089;SDS011;45149;50.976;6.120;2022-12-20T16:57:13;529.88;;;398.00;;